Time;durP1;ratioP1;P1;durP2;ratioP2;P2;SDS_P1;SDS_P2;PMS_P1;PMS_P2;Temp;Humidity;BMP_temperature;BMP_pressure;BME280_temperature;BME280_humidity;BME280_pressure;Samples;Min_cycle;Max_cycle;Signal;HPM_P1;HPM_P2
2021/09/08 00:01:22;;;;;;;8.27;6.50;;;19.40;70.80;;;;;;5035230;28;20250;-81
2021/09/08 00:03:48;;;;;;;9.00;6.53;;;19.50;70.90;;;;;;5018458;28;20162;-83
2021/09/08 00:06:14;;;;;;;9.10;6.57;;;19.40;70.80;;;;;;5036506;28;20155;-80
2021/09/08 00:08:42;;;;;;;9.07;6.90;;;19.40;70.70;;;;;;5036289;28;20166;-80
2021/09/08 00:11:13;;;;;;;9.00;6.93;;;19.40;70.80;;;;;;5017469;28;20205;-81
2021/09/08 00:13:38;;;;;;;7.55;6.13;;;19.40;70.70;;;;;;5017767;28;20218;-80
2021/09/08 00:16:07;;;;;;;8.38;6.47;;;19.40;70.70;;;;;;5035154;28;20152;-82
2021/09/08 00:18:37;;;;;;;7.80;6.63;;;19.40;70.70;;;;;;5033962;28;20179;-82
2021/09/08 00:21:06;;;;;;;8.48;6.88;;;19.40;70.80;;;;;;5017337;28;20221;-81
2021/09/08 00:23:34;;;;;;;8.38;6.50;;;19.50;70.90;;;;;;5033995;28;20190;-82
2021/09/08 00:26:03;;;;;;;8.75;6.93;;;19.50;70.90;;;;;;5033324;28;20186;-81
2021/09/08 00:28:31;;;;;;;8.15;6.85;;;19.40;70.80;;;;;;5017430;28;20186;-82
2021/09/08 00:31:00;;;;;;;9.10;6.57;;;19.40;70.90;;;;;;5033672;28;20186;-83
2021/09/08 00:33:28;;;;;;;8.27;6.55;;;19.40;71.00;;;;;;5033465;28;20183;-80
2021/09/08 00:35:56;;;;;;;8.38;6.60;;;19.50;71.00;;;;;;5016747;28;20191;-80
2021/09/08 00:38:25;;;;;;;8.15;6.53;;;19.40;71.00;;;;;;5033679;28;20283;-80
2021/09/08 00:40:56;;;;;;;8.40;6.78;;;19.40;71.00;;;;;;5033762;28;20699;-79
2021/09/08 00:43:22;;;;;;;8.95;6.68;;;19.40;71.00;;;;;;5033641;28;20181;-84
2021/09/08 00:45:52;;;;;;;8.50;6.63;;;19.40;71.80;;;;;;5050703;28;20216;-80
2021/09/08 00:48:18;;;;;;;9.50;6.93;;;19.40;71.00;;;;;;5035484;28;20162;-82
2021/09/08 00:50:46;;;;;;;8.50;6.43;;;19.40;70.90;;;;;;5035391;28;20155;-82
2021/09/08 00:53:12;;;;;;;8.70;6.65;;;19.40;71.00;;;;;;5035469;28;20174;-80
2021/09/08 00:55:38;;;;;;;9.93;6.70;;;19.40;71.00;;;;;;5034057;28;20177;-80
2021/09/08 00:58:04;;;;;;;9.18;6.95;;;19.40;71.00;;;;;;5033938;28;20162;-80
2021/09/08 01:00:29;;;;;;;8.93;6.50;;;19.40;71.00;;;;;;5017124;28;20191;-79
2021/09/08 01:02:55;;;;;;;8.45;6.38;;;19.40;71.00;;;;;;5033779;28;20166;-82
2021/09/08 01:05:23;;;;;;;7.80;6.22;;;19.40;71.00;;;;;;5033821;28;20151;-81
2021/09/08 01:07:52;;;;;;;7.63;6.15;;;19.40;71.00;;;;;;5049593;28;20178;-82
2021/09/08 01:10:19;;;;;;;8.18;6.20;;;19.40;71.00;;;;;;5033012;28;20582;-80
2021/09/08 01:12:46;;;;;;;8.45;6.53;;;19.40;71.00;;;;;;5032816;28;20244;-81
2021/09/08 01:15:13;;;;;;;9.20;7.15;;;19.40;71.00;;;;;;5033261;28;20709;-82
2021/09/08 01:17:38;;;;;;;8.48;6.50;;;19.40;71.00;;;;;;5033511;28;20217;-80
2021/09/08 01:20:06;;;;;;;9.02;6.90;;;19.40;71.00;;;;;;5033390;28;20186;-83
2021/09/08 01:22:34;;;;;;;7.70;6.35;;;19.40;70.90;;;;;;5033311;28;20552;-80
2021/09/08 01:25:00;;;;;;;8.93;6.95;;;19.40;70.90;;;;;;5033489;28;20154;-82
2021/09/08 01:27:29;;;;;;;8.80;6.88;;;19.40;71.10;;;;;;5034514;28;20154;-79
2021/09/08 01:29:55;;;;;;;8.15;6.30;;;19.40;71.10;;;;;;5032722;28;20225;-80
2021/09/08 01:32:30;;;;;;;7.93;6.47;;;19.40;71.10;;;;;;5033367;28;20167;-81
2021/09/08 01:34:55;;;;;;;9.25;7.03;;;19.40;71.10;;;;;;5016560;28;20170;-80
2021/09/08 01:37:22;;;;;;;8.10;6.35;;;19.40;71.10;;;;;;5032866;28;20216;-81
2021/09/08 01:39:47;;;;;;;8.73;6.78;;;19.40;71.10;;;;;;5016404;28;20269;-82
2021/09/08 01:42:13;;;;;;;8.20;6.50;;;19.30;70.90;;;;;;5033064;28;20218;-81
2021/09/08 01:44:39;;;;;;;8.75;7.18;;;19.40;71.00;;;;;;5034394;28;20184;-84
2021/09/08 01:47:04;;;;;;;8.63;7.07;;;19.40;71.00;;;;;;5034092;28;20159;-80
2021/09/08 01:49:30;;;;;;;8.02;6.72;;;19.40;71.00;;;;;;5032766;28;20621;-82
2021/09/08 01:51:56;;;;;;;7.38;6.22;;;19.40;71.00;;;;;;5049544;28;20198;-79
2021/09/08 01:54:22;;;;;;;8.32;6.55;;;19.40;70.90;;;;;;5033124;28;20192;-82
2021/09/08 01:56:48;;;;;;;8.55;7.25;;;19.40;71.00;;;;;;5032860;28;20178;-81
2021/09/08 01:59:16;;;;;;;8.50;6.63;;;19.40;71.10;;;;;;5016454;28;20190;-81
2021/09/08 02:01:46;;;;;;;7.97;6.55;;;19.40;71.10;;;;;;5015516;28;20178;-81
2021/09/08 02:04:14;;;;;;;7.80;6.55;;;19.40;71.10;;;;;;5015685;28;20693;-81
2021/09/08 02:06:56;;;;;;;8.45;6.70;;;19.40;71.00;;;;;;5032189;28;20232;-82
2021/09/08 02:09:22;;;;;;;8.73;7.00;;;19.40;71.00;;;;;;5031807;28;20191;-80
2021/09/08 02:11:48;;;;;;;9.25;7.07;;;19.30;70.90;;;;;;5016116;28;20167;-81
2021/09/08 02:14:13;;;;;;;8.48;6.65;;;19.40;71.00;;;;;;5015969;28;20225;-82
2021/09/08 02:16:39;;;;;;;8.88;6.75;;;19.40;71.10;;;;;;5032462;28;20175;-82
2021/09/08 02:19:05;;;;;;;8.40;6.88;;;19.40;71.10;;;;;;5033559;28;20715;-79
2021/09/08 02:21:31;;;;;;;8.68;6.93;;;19.30;70.90;;;;;;5032020;28;20535;-82
2021/09/08 02:23:56;;;;;;;8.10;6.53;;;19.40;71.00;;;;;;5032471;28;20181;-84
2021/09/08 02:26:22;;;;;;;8.25;6.78;;;19.40;71.10;;;;;;5032398;28;20159;-82
2021/09/08 02:28:48;;;;;;;8.13;6.40;;;19.30;70.90;;;;;;5034017;28;20159;-82
2021/09/08 02:31:14;;;;;;;9.05;6.80;;;19.30;71.00;;;;;;5032391;28;20602;-82
2021/09/08 02:33:40;;;;;;;9.95;7.35;;;19.30;70.90;;;;;;5032588;28;20154;-81
2021/09/08 02:36:06;;;;;;;7.85;6.57;;;19.40;71.00;;;;;;5032369;28;20233;-80
2021/09/08 02:38:32;;;;;;;8.13;6.60;;;19.40;71.00;;;;;;5032305;28;20205;-82
2021/09/08 02:40:59;;;;;;;9.25;7.05;;;19.30;70.90;;;;;;5032045;28;20194;-83
2021/09/08 02:43:27;;;;;;;8.55;7.05;;;19.40;71.00;;;;;;5032373;28;20147;-80
2021/09/08 02:45:55;;;;;;;8.82;6.82;;;19.40;71.00;;;;;;5031540;28;20186;-79
2021/09/08 02:48:21;;;;;;;9.57;6.78;;;19.40;70.90;;;;;;5015009;28;20522;-82
2021/09/08 02:50:48;;;;;;;8.75;7.05;;;19.30;71.00;;;;;;5031937;28;20645;-81
2021/09/08 02:53:15;;;;;;;8.73;6.88;;;19.30;71.00;;;;;;5031427;28;20725;-83
2021/09/08 02:55:43;;;;;;;8.48;6.70;;;19.30;70.90;;;;;;5031316;28;20273;-82
2021/09/08 02:58:11;;;;;;;9.10;7.03;;;19.30;70.90;;;;;;5047800;28;20266;-80
2021/09/08 03:00:38;;;;;;;8.52;6.80;;;19.30;70.90;;;;;;5031231;28;20216;-82
2021/09/08 03:03:08;;;;;;;9.82;6.93;;;19.30;70.90;;;;;;5014921;28;20183;-83
2021/09/08 03:05:36;;;;;;;9.07;6.47;;;19.40;71.00;;;;;;5031700;28;20221;-80
2021/09/08 03:08:03;;;;;;;8.75;6.90;;;19.30;70.90;;;;;;5031017;28;20218;-80
2021/09/08 03:10:33;;;;;;;9.00;6.68;;;19.30;70.90;;;;;;5031160;28;20529;-81
2021/09/08 03:13:00;;;;;;;9.20;7.07;;;19.30;70.90;;;;;;5031424;28;20252;-83
2021/09/08 03:15:26;;;;;;;9.38;6.55;;;19.30;70.90;;;;;;5014433;28;20321;-79
2021/09/08 03:17:53;;;;;;;9.10;6.95;;;19.30;70.90;;;;;;5031866;28;20404;-83
2021/09/08 03:20:20;;;;;;;8.70;6.65;;;19.30;70.80;;;;;;5014330;28;20210;-81
2021/09/08 03:22:48;;;;;;;9.05;7.28;;;19.30;70.90;;;;;;5031275;28;20650;-82
2021/09/08 03:25:16;;;;;;;9.07;6.82;;;19.30;70.80;;;;;;5014772;28;20206;-81
2021/09/08 03:27:43;;;;;;;9.00;6.95;;;19.30;70.90;;;;;;5031202;28;20189;-81
2021/09/08 03:30:11;;;;;;;7.45;6.28;;;19.30;70.90;;;;;;5031364;28;20246;-81
2021/09/08 03:32:39;;;;;;;9.02;7.18;;;19.30;70.80;;;;;;5016356;28;20526;-82
2021/09/08 03:35:07;;;;;;;8.32;6.50;;;19.30;70.80;;;;;;5018333;28;20178;-81
2021/09/08 03:37:34;;;;;;;9.77;7.47;;;19.30;70.80;;;;;;5017914;28;20652;-81
2021/09/08 03:40:01;;;;;;;10.00;7.50;;;19.30;70.90;;;;;;5034728;28;20245;-81
2021/09/08 03:42:28;;;;;;;10.35;6.75;;;19.40;70.90;;;;;;5034641;28;20187;-84
2021/09/08 03:44:58;;;;;;;8.65;6.40;;;19.30;70.70;;;;;;5034548;28;20200;-81
2021/09/08 03:47:24;;;;;;;8.60;6.45;;;19.30;70.80;;;;;;5034832;28;20669;-80
2021/09/08 03:49:51;;;;;;;8.85;6.60;;;19.30;70.80;;;;;;5036523;28;20167;-82
2021/09/08 03:52:19;;;;;;;8.60;6.82;;;19.30;70.70;;;;;;5035164;28;20556;-80
2021/09/08 03:54:46;;;;;;;7.43;6.10;;;19.40;70.90;;;;;;5018406;28;20189;-79
2021/09/08 03:57:13;;;;;;;8.30;6.47;;;19.30;70.80;;;;;;5034784;28;20589;-80
2021/09/08 03:59:40;;;;;;;8.82;6.90;;;19.30;70.80;;;;;;5034561;28;20290;-81
2021/09/08 04:02:07;;;;;;;8.85;6.85;;;19.30;70.80;;;;;;5034379;28;20294;-82
2021/09/08 04:04:34;;;;;;;9.55;6.80;;;19.30;70.90;;;;;;5018262;28;20206;-81
2021/09/08 04:07:01;;;;;;;8.48;6.93;;;19.30;70.80;;;;;;5034692;28;20183;-80
2021/09/08 04:09:28;;;;;;;8.95;6.60;;;19.30;70.80;;;;;;5017742;28;20182;-79
2021/09/08 04:11:55;;;;;;;8.98;6.90;;;19.30;70.80;;;;;;5034083;28;20199;-80
2021/09/08 04:14:20;;;;;;;8.88;6.72;;;19.30;70.90;;;;;;5034598;28;20292;-80
2021/09/08 04:16:47;;;;;;;8.48;6.72;;;19.30;70.80;;;;;;5035278;28;20579;-80
2021/09/08 04:19:13;;;;;;;9.13;7.18;;;19.30;70.80;;;;;;5034781;28;20621;-80
2021/09/08 04:21:38;;;;;;;8.82;7.20;;;19.30;70.80;;;;;;5035530;28;20638;-83
2021/09/08 04:24:04;;;;;;;8.43;6.45;;;19.30;70.90;;;;;;5019174;28;20155;-81
2021/09/08 04:26:31;;;;;;;8.80;7.07;;;19.30;70.90;;;;;;5035831;28;20163;-83
2021/09/08 04:28:57;;;;;;;9.27;7.03;;;19.30;71.20;;;;;;5035082;28;20669;-81
2021/09/08 04:31:27;;;;;;;8.13;6.30;;;19.30;71.20;;;;;;5036588;28;20161;-82
2021/09/08 04:33:53;;;;;;;7.45;6.20;;;19.30;71.30;;;;;;5034660;28;20209;-83
2021/09/08 04:36:23;;;;;;;7.72;6.00;;;19.30;71.30;;;;;;5035124;28;20155;-80
2021/09/08 04:38:51;;;;;;;7.70;5.78;;;19.30;71.30;;;;;;5017805;28;20179;-83
2021/09/08 04:41:18;;;;;;;8.65;6.65;;;19.30;71.30;;;;;;5017501;28;20550;-83
2021/09/08 04:43:45;;;;;;;8.88;7.18;;;19.30;71.30;;;;;;5033742;28;20178;-82
2021/09/08 04:46:10;;;;;;;7.43;6.05;;;19.30;71.40;;;;;;5034675;28;20159;-82
2021/09/08 04:48:36;;;;;;;7.32;5.88;;;19.30;71.40;;;;;;5034598;28;20663;-79
2021/09/08 04:51:02;;;;;;;9.20;6.40;;;19.30;71.60;;;;;;5035965;28;20195;-80
2021/09/08 04:53:27;;;;;;;8.35;6.30;;;19.30;71.70;;;;;;5018071;28;20217;-79
2021/09/08 04:55:53;;;;;;;8.27;6.10;;;19.30;71.70;;;;;;5035551;28;20171;-82
2021/09/08 04:58:22;;;;;;;7.72;5.95;;;19.30;71.80;;;;;;5034794;28;20162;-80
2021/09/08 05:00:50;;;;;;;7.78;6.30;;;19.30;71.80;;;;;;5033832;28;20221;-82
2021/09/08 05:03:20;;;;;;;8.15;6.20;;;19.30;72.00;;;;;;5016923;28;20182;-82
2021/09/08 05:05:46;;;;;;;7.80;6.05;;;19.30;72.00;;;;;;5034155;28;20179;-80
2021/09/08 05:08:12;;;;;;;8.48;6.05;;;19.30;71.90;;;;;;5034119;28;20554;-81
2021/09/08 05:10:37;;;;;;;8.20;6.22;;;19.30;71.90;;;;;;5017909;28;20167;-79
2021/09/08 05:13:05;;;;;;;8.77;6.30;;;19.30;72.00;;;;;;5018186;28;20163;-80
2021/09/08 05:15:33;;;;;;;8.82;6.55;;;19.30;72.10;;;;;;5033501;28;20276;-83
2021/09/08 05:18:01;;;;;;;8.15;5.80;;;19.30;72.90;;;;;;5017282;28;20189;-81
2021/09/08 05:20:29;;;;;;;10.10;6.63;;;19.30;72.10;;;;;;5017081;28;20314;-83
2021/09/08 05:22:56;;;;;;;7.22;5.80;;;19.20;72.10;;;;;;5033171;28;20179;-80
2021/09/08 05:25:24;;;;;;;8.98;6.45;;;19.30;72.10;;;;;;5033015;28;20193;-81
2021/09/08 05:27:52;;;;;;;8.52;6.20;;;19.30;72.20;;;;;;5033200;28;20282;-80
2021/09/08 05:30:18;;;;;;;8.02;6.13;;;19.30;72.20;;;;;;5032915;28;20194;-82
2021/09/08 05:32:43;;;;;;;8.82;6.45;;;19.30;72.30;;;;;;5033413;28;20159;-82
2021/09/08 05:35:12;;;;;;;8.80;6.32;;;19.30;72.30;;;;;;5033844;28;20159;-82
2021/09/08 05:37:40;;;;;;;8.57;6.30;;;19.30;72.40;;;;;;5033463;28;20585;-81
2021/09/08 05:40:08;;;;;;;8.70;6.32;;;19.30;72.50;;;;;;5033445;28;20186;-83
2021/09/08 05:42:33;;;;;;;7.60;5.93;;;19.30;72.60;;;;;;5034543;28;20644;-79
2021/09/08 05:44:59;;;;;;;7.53;5.93;;;19.20;72.50;;;;;;5034712;28;20186;-83
2021/09/08 05:47:25;;;;;;;8.63;6.40;;;19.30;72.60;;;;;;5016983;28;20159;-82
2021/09/08 05:49:50;;;;;;;8.13;6.40;;;19.30;72.70;;;;;;5016843;28;20159;-81
2021/09/08 05:52:20;;;;;;;9.63;6.38;;;19.30;72.70;;;;;;5034597;28;20159;-81
2021/09/08 05:54:47;;;;;;;8.50;6.43;;;19.30;72.80;;;;;;5015046;28;20199;-81
2021/09/08 05:57:13;;;;;;;8.40;6.22;;;19.20;72.90;;;;;;5016329;28;20178;-82
2021/09/08 05:59:39;;;;;;;9.30;6.63;;;19.30;72.90;;;;;;5032642;28;20182;-82
2021/09/08 06:02:05;;;;;;;8.82;6.30;;;19.30;72.80;;;;;;5050273;28;20162;-81
2021/09/08 06:04:31;;;;;;;7.60;5.68;;;19.30;72.90;;;;;;5034471;28;20155;-82
2021/09/08 06:06:57;;;;;;;7.40;5.97;;;19.20;72.90;;;;;;5017118;28;20163;-80
2021/09/08 06:09:23;;;;;;;7.78;6.15;;;19.30;73.00;;;;;;5032539;28;20159;-80
2021/09/08 06:11:55;;;;;;;7.75;6.03;;;19.30;73.10;;;;;;5032762;28;20562;-82
2021/09/08 06:14:21;;;;;;;9.27;6.43;;;19.30;73.20;;;;;;5033553;28;20225;-82
2021/09/08 06:16:46;;;;;;;7.85;6.07;;;19.30;73.20;;;;;;5033067;28;20175;-82
2021/09/08 06:19:12;;;;;;;8.82;6.10;;;19.30;73.20;;;;;;5016031;28;20220;-81
2021/09/08 06:21:38;;;;;;;7.13;5.47;;;19.30;73.30;;;;;;5016814;28;20173;-82
2021/09/08 06:24:10;;;;;;;8.63;6.38;;;19.30;73.20;;;;;;5034896;28;20158;-80
2021/09/08 06:26:36;;;;;;;8.07;6.35;;;19.30;73.20;;;;;;5034300;28;20197;-82
2021/09/08 06:29:01;;;;;;;8.63;6.53;;;19.30;73.20;;;;;;5016759;28;20167;-80
2021/09/08 06:31:28;;;;;;;8.45;6.28;;;19.40;73.30;;;;;;5033430;28;20511;-79
2021/09/08 06:33:54;;;;;;;8.30;6.20;;;19.40;73.30;;;;;;5034796;28;20178;-81
2021/09/08 06:36:20;;;;;;;8.43;6.30;;;19.40;73.30;;;;;;5037527;28;20189;-79
2021/09/08 06:38:46;;;;;;;8.35;6.13;;;19.40;73.40;;;;;;5034053;28;20551;-80
2021/09/08 06:41:11;;;;;;;7.60;5.82;;;19.50;73.50;;;;;;5034215;28;20263;-79
2021/09/08 06:43:37;;;;;;;8.23;6.22;;;19.50;73.00;;;;;;5034250;28;20178;-81
2021/09/08 06:46:03;;;;;;;8.20;6.13;;;19.50;72.90;;;;;;5033763;28;20201;-82
2021/09/08 06:48:28;;;;;;;8.45;5.82;;;19.60;72.90;;;;;;5035184;28;20166;-79
2021/09/08 06:50:54;;;;;;;7.82;6.28;;;19.50;72.70;;;;;;5016878;28;20189;-78
2021/09/08 06:53:21;;;;;;;7.75;5.95;;;19.50;73.00;;;;;;5033828;28;20159;-78
2021/09/08 06:56:10;;;;;;;7.68;5.93;;;19.60;72.90;;;;;;5035353;28;20166;-81
2021/09/08 06:58:36;;;;;;;7.43;5.88;;;19.60;72.90;;;;;;5037226;28;20178;-80
2021/09/08 07:01:02;;;;;;;9.27;6.50;;;19.50;72.80;;;;;;5021331;28;20220;-81
2021/09/08 07:03:32;;;;;;;8.52;6.65;;;19.50;72.90;;;;;;5039334;28;20155;-78
2021/09/08 07:06:01;;;;;;;9.15;5.78;;;19.50;73.10;;;;;;5035976;28;20182;-80
2021/09/08 07:08:29;;;;;;;8.73;5.80;;;19.60;73.50;;;;;;5040260;28;20211;-81
2021/09/08 07:10:57;;;;;;;7.53;5.95;;;19.50;73.50;;;;;;5056336;28;20185;-83
2021/09/08 07:13:23;;;;;;;8.18;5.72;;;19.60;73.80;;;;;;5036692;28;20186;-81
2021/09/08 07:15:48;;;;;;;8.32;6.10;;;19.50;73.70;;;;;;5036597;28;20215;-82
2021/09/08 07:18:14;;;;;;;8.15;6.18;;;19.50;73.70;;;;;;5025384;28;20170;-83
2021/09/08 07:20:41;;;;;;;8.65;6.20;;;19.50;73.90;;;;;;5057104;28;20197;-82
2021/09/08 07:23:08;;;;;;;7.78;5.85;;;19.50;73.70;;;;;;5041118;28;20163;-81
2021/09/08 07:25:36;;;;;;;7.72;6.30;;;19.50;73.60;;;;;;5058392;28;20220;-81
2021/09/08 07:28:03;;;;;;;8.32;6.30;;;19.60;73.90;;;;;;5041238;28;20151;-81
2021/09/08 07:30:29;;;;;;;8.73;6.07;;;19.50;73.60;;;;;;5040034;28;20625;-82
2021/09/08 07:32:55;;;;;;;8.13;6.07;;;19.50;73.70;;;;;;5025277;28;20174;-80
2021/09/08 07:35:21;;;;;;;8.50;6.07;;;19.50;74.10;;;;;;5041640;28;20260;-81
2021/09/08 07:37:46;;;;;;;7.13;5.30;;;19.50;74.10;;;;;;5040764;28;20221;-81
2021/09/08 07:40:12;;;;;;;6.82;5.55;;;19.40;74.20;;;;;;5041650;28;20568;-81
2021/09/08 07:42:41;;;;;;;8.55;5.97;;;19.50;74.40;;;;;;5057529;28;20158;-81
2021/09/08 07:45:07;;;;;;;8.48;6.57;;;19.50;74.30;;;;;;5040127;28;20190;-80
2021/09/08 07:47:33;;;;;;;8.13;6.10;;;19.50;74.30;;;;;;5041099;28;20260;-82
2021/09/08 07:50:16;;;;;;;6.72;5.38;;;19.60;74.60;;;;;;5026120;28;20214;-83
2021/09/08 07:53:09;;;;;;;7.93;6.07;;;19.60;74.70;;;;;;5026752;28;20191;-81
2021/09/08 07:55:38;;;;;;;7.63;5.78;;;19.60;74.60;;;;;;4988054;28;20765;-79
2021/09/08 07:58:04;;;;;;;9.40;6.30;;;19.50;74.60;;;;;;5003761;28;20179;-83
2021/09/08 08:00:33;;;;;;;7.55;5.80;;;19.50;74.70;;;;;;4985178;28;20634;-81
2021/09/08 08:03:03;;;;;;;9.07;6.18;;;19.50;75.10;;;;;;4984051;28;20162;-82
2021/09/08 08:05:31;;;;;;;7.70;5.82;;;19.50;75.90;;;;;;4999483;28;20175;-81
2021/09/08 08:07:56;;;;;;;7.90;5.70;;;19.50;75.00;;;;;;4983568;28;20152;-83
2021/09/08 08:10:32;;;;;;;8.13;5.70;;;19.50;75.20;;;;;;5000387;28;20253;-81
2021/09/08 08:12:59;;;;;;;7.72;5.50;;;19.50;75.20;;;;;;4977380;28;20188;-81
2021/09/08 08:15:29;;;;;;;6.32;5.20;;;19.50;75.20;;;;;;4978664;28;20251;-83
2021/09/08 08:17:55;;;;;;;7.40;5.43;;;19.50;75.50;;;;;;4958658;28;20215;-82
2021/09/08 08:20:24;;;;;;;7.75;5.13;;;19.50;75.60;;;;;;4976509;28;20629;-81
2021/09/08 08:22:50;;;;;;;9.85;5.80;;;19.60;75.40;;;;;;4944354;28;20204;-81
2021/09/08 08:25:18;;;;;;;8.30;5.80;;;19.60;75.10;;;;;;4976654;28;20184;-84
2021/09/08 08:27:46;;;;;;;7.40;5.78;;;19.60;75.20;;;;;;4976456;28;20180;-80
2021/09/08 08:30:12;;;;;;;8.75;6.07;;;19.60;75.10;;;;;;4976224;28;20592;-82
2021/09/08 08:32:38;;;;;;;7.93;5.75;;;19.70;75.10;;;;;;4975888;28;20660;-82
2021/09/08 08:35:04;;;;;;;9.45;5.95;;;19.60;75.20;;;;;;4975826;28;20179;-82
2021/09/08 08:37:31;;;;;;;6.95;5.68;;;19.70;75.30;;;;;;4973613;28;20216;-84
2021/09/08 08:40:03;;;;;;;9.32;6.18;;;19.70;75.40;;;;;;4940282;28;20212;-81
2021/09/08 08:42:31;;;;;;;9.07;5.90;;;19.60;75.50;;;;;;4908174;29;20650;-83
2021/09/08 08:44:56;;;;;;;7.72;5.82;;;19.70;75.70;;;;;;4959837;29;20231;-81
2021/09/08 08:47:29;;;;;;;7.10;5.68;;;19.60;75.80;;;;;;4944075;29;20280;-82
2021/09/08 08:49:56;;;;;;;7.75;5.70;;;19.60;76.10;;;;;;4919168;28;20187;-81
2021/09/08 08:52:22;;;;;;;7.07;5.32;;;19.60;76.20;;;;;;4965733;28;20164;-81
2021/09/08 08:54:47;;;;;;;6.75;5.43;;;19.60;76.10;;;;;;4947790;28;20182;-84
2021/09/08 08:57:15;;;;;;;7.32;5.30;;;19.70;76.30;;;;;;4986759;28;20164;-84
2021/09/08 08:59:41;;;;;;;10.38;5.47;;;19.70;76.50;;;;;;4995753;28;20239;-83
2021/09/08 09:02:29;;;;;;;8.27;5.20;;;19.70;76.40;;;;;;4963047;28;20151;-82
2021/09/08 09:04:56;;;;;;;8.20;5.45;;;19.70;76.40;;;;;;4990117;28;20179;-84
2021/09/08 09:07:32;;;;;;;8.73;6.00;;;19.70;76.30;;;;;;4980964;28;20238;-81
2021/09/08 09:10:08;;;;;;;7.70;5.30;;;19.70;76.50;;;;;;4976583;28;20190;-79
2021/09/08 09:12:35;;;;;;;7.40;5.50;;;19.70;76.70;;;;;;4977330;28;20636;-83
2021/09/08 09:15:10;;;;;;;9.40;5.70;;;19.70;76.70;;;;;;4977642;28;20742;-85
2021/09/08 09:17:41;;;;;;;7.30;5.53;;;19.70;76.70;;;;;;4980484;28;20188;-80
2021/09/08 09:20:11;;;;;;;7.78;5.80;;;19.80;76.50;;;;;;4970623;28;20214;-79
2021/09/08 09:22:48;;;;;;;8.38;5.72;;;19.80;76.50;;;;;;4977944;28;20191;-85
2021/09/08 09:25:16;;;;;;;16.90;5.70;;;19.80;76.50;;;;;;4981350;28;20662;-81
2021/09/08 09:27:47;;;;;;;7.97;5.63;;;19.70;76.50;;;;;;4978911;28;20156;-81
2021/09/08 09:30:16;;;;;;;8.90;6.43;;;19.70;76.50;;;;;;4976469;28;20179;-84
2021/09/08 09:32:44;;;;;;;7.75;5.53;;;19.80;76.50;;;;;;4978378;28;20192;-83
2021/09/08 09:35:12;;;;;;;7.15;5.68;;;19.70;76.70;;;;;;4962910;28;20176;-83
2021/09/08 09:37:44;;;;;;;6.70;5.30;;;19.80;76.70;;;;;;4992140;28;20210;-80
2021/09/08 09:40:10;;;;;;;7.72;5.32;;;19.90;76.60;;;;;;4994402;28;20678;-80
2021/09/08 09:42:42;;;;;;;6.82;5.60;;;19.90;76.30;;;;;;5011924;28;20246;-84
2021/09/08 09:45:12;;;;;;;7.85;5.28;;;19.90;76.20;;;;;;4978251;28;20183;-82
2021/09/08 09:47:40;;;;;;;7.10;5.40;;;19.90;76.00;;;;;;4995306;28;20704;-80
2021/09/08 09:50:13;;;;;;;7.65;6.00;;;20.00;75.70;;;;;;5012893;28;20166;-81
2021/09/08 09:52:41;;;;;;;7.70;5.53;;;20.00;75.70;;;;;;5028361;28;20191;-81
2021/09/08 09:55:09;;;;;;;6.47;5.22;;;20.00;75.70;;;;;;5011900;28;20551;-80
2021/09/08 09:57:37;;;;;;;7.70;5.20;;;20.00;75.40;;;;;;4995684;28;20226;-81
2021/09/08 10:00:05;;;;;;;7.22;5.75;;;20.00;75.20;;;;;;5028001;28;20213;-81
2021/09/08 10:02:33;;;;;;;9.50;5.07;;;20.00;75.00;;;;;;5011628;28;20241;-82
2021/09/08 10:05:03;;;;;;;8.73;5.78;;;20.10;75.30;;;;;;5011629;28;20205;-81
2021/09/08 10:07:30;;;;;;;6.45;5.13;;;20.00;75.20;;;;;;5027824;28;20214;-84
2021/09/08 10:10:01;;;;;;;7.45;5.50;;;20.00;75.10;;;;;;5011505;28;20187;-82
2021/09/08 10:12:48;;;;;;;7.80;6.00;;;20.00;74.90;;;;;;4979210;28;20550;-84
2021/09/08 10:15:15;;;;;;;6.70;5.43;;;20.00;75.00;;;;;;5012283;28;20420;-84
2021/09/08 10:17:43;;;;;;;7.00;5.35;;;20.00;75.00;;;;;;4996513;28;20194;-83
2021/09/08 10:20:11;;;;;;;7.15;5.50;;;20.00;75.20;;;;;;5012575;28;20191;-82
2021/09/08 10:22:39;;;;;;;7.68;5.10;;;20.10;75.00;;;;;;4996214;28;20171;-82
2021/09/08 10:25:15;;;;;;;7.00;5.72;;;20.10;75.00;;;;;;4996221;28;20175;-79
2021/09/08 10:27:42;;;;;;;6.90;5.32;;;20.10;74.70;;;;;;5012136;28;20266;-83
2021/09/08 10:30:10;;;;;;;7.53;5.63;;;20.20;75.20;;;;;;5011501;28;20183;-81
2021/09/08 10:32:40;;;;;;;6.57;5.32;;;20.20;74.70;;;;;;5032153;28;20187;-82
2021/09/08 10:35:17;;;;;;;6.68;5.15;;;20.20;74.60;;;;;;4997788;28;20194;-81
2021/09/08 10:37:45;;;;;;;7.50;5.57;;;20.30;74.70;;;;;;5013207;28;20170;-83
2021/09/08 10:40:19;;;;;;;6.10;5.03;;;20.20;74.30;;;;;;5015771;28;20297;-80
2021/09/08 10:42:53;;;;;;;8.40;6.10;;;20.20;74.10;;;;;;5008271;28;20200;-79
2021/09/08 10:45:24;;;;;;;5.85;4.88;;;20.30;74.10;;;;;;5010352;28;20677;-82
2021/09/08 10:47:54;;;;;;;10.50;5.78;;;20.20;74.20;;;;;;5021990;28;20198;-84
2021/09/08 10:50:41;;;;;;;7.60;5.55;;;20.20;74.20;;;;;;5020068;28;20266;-84
2021/09/08 10:53:31;;;;;;;7.63;5.55;;;20.20;74.10;;;;;;5026010;28;20257;-81
2021/09/08 10:56:02;;;;;;;6.82;5.38;;;20.20;74.20;;;;;;5009860;28;20170;-83
2021/09/08 10:59:02;;;;;;;5.78;4.88;;;20.20;74.20;;;;;;5021947;28;20236;-85
2021/09/08 11:01:28;;;;;;;6.88;5.40;;;20.20;74.30;;;;;;5037795;28;20304;-79
2021/09/08 11:03:54;;;;;;;7.93;5.32;;;20.20;74.10;;;;;;5037102;28;20155;-83
2021/09/08 11:06:45;;;;;;;7.40;5.00;;;20.20;74.10;;;;;;5029861;28;20242;-87
2021/09/08 11:09:16;;;;;;;8.00;5.13;;;20.30;74.00;;;;;;5037732;28;20230;-86
2021/09/08 11:12:16;;;;;;;7.47;5.25;;;20.40;73.80;;;;;;5023019;28;20831;-87
2021/09/08 11:15:09;;;;;;;6.75;5.15;;;20.40;73.60;;;;;;5018556;28;20717;-87
2021/09/08 11:17:47;;;;;;;6.05;4.90;;;20.40;73.40;;;;;;5004845;28;20190;-87
2021/09/08 11:20:17;;;;;;;7.20;5.60;;;20.30;73.60;;;;;;5005398;28;20260;-87
2021/09/08 11:23:47;;;;;;;7.45;5.68;;;20.30;73.70;;;;;;4986076;28;20163;-89
2021/09/08 11:26:22;;;;;;;6.95;5.20;;;20.30;73.70;;;;;;4965225;28;20186;-86
2021/09/08 11:29:05;;;;;;;5.82;4.78;;;20.30;73.70;;;;;;5004139;28;20187;-87
2021/09/08 11:31:36;;;;;;;6.60;5.43;;;20.30;74.40;;;;;;5005743;28;20183;-87
2021/09/08 11:37:11;;;;;;;5.95;4.95;;;20.30;73.40;;;;;;4918147;29;20254;-87
2021/09/08 11:39:36;;;;;;;6.93;4.90;;;20.30;73.50;;;;;;4918810;29;20230;-85
2021/09/08 11:42:04;;;;;;;6.93;5.35;;;20.40;73.40;;;;;;4918274;29;20213;-88
2021/09/08 11:44:31;;;;;;;7.75;5.45;;;20.40;73.10;;;;;;4885852;29;20632;-86
2021/09/08 11:46:57;;;;;;;6.65;5.40;;;20.40;73.00;;;;;;4900276;29;20211;-85
2021/09/08 11:49:23;;;;;;;6.38;5.40;;;20.30;73.10;;;;;;4903194;29;20274;-87
2021/09/08 11:51:49;;;;;;;6.38;5.03;;;20.40;73.30;;;;;;4900044;29;20659;-83
2021/09/08 11:54:18;;;;;;;7.47;5.00;;;20.40;73.30;;;;;;4898686;29;20238;-86
2021/09/08 11:56:52;;;;;;;7.03;5.25;;;20.50;73.00;;;;;;4898384;29;20215;-82
2021/09/08 11:59:38;;;;;;;6.22;5.07;;;20.50;72.90;;;;;;4892202;29;20200;-85
2021/09/08 12:02:05;;;;;;;7.30;5.28;;;20.40;72.70;;;;;;4912095;29;20582;-87
2021/09/08 12:04:53;;;;;;;;;;;;;;;;;;;;;
2021/09/08 12:51:08;;;;;;;5.88;5.20;;;20.70;72.20;;;;;;5075774;28;20207;-84
2021/09/08 12:53:35;;;;;;;6.07;4.90;;;20.70;71.80;;;;;;5026348;28;20167;-84
2021/09/08 12:56:01;;;;;;;6.63;4.93;;;20.80;71.80;;;;;;5023402;28;20572;-88
2021/09/08 12:58:28;;;;;;;6.18;5.10;;;20.70;72.00;;;;;;5050153;28;20158;-83
2021/09/08 13:00:56;;;;;;;5.78;4.63;;;20.70;72.00;;;;;;5042282;28;20218;-83
2021/09/08 13:03:26;;;;;;;6.30;4.95;;;20.70;72.10;;;;;;5000903;28;20186;-83
2021/09/08 13:05:54;;;;;;;5.60;4.63;;;20.70;72.00;;;;;;5004146;28;20247;-82
2021/09/08 13:08:24;;;;;;;6.85;4.90;;;20.80;71.80;;;;;;5006246;28;20174;-83
2021/09/08 13:10:58;;;;;;;5.47;4.70;;;20.70;71.60;;;;;;4991366;28;20183;-80
2021/09/08 13:13:35;;;;;;;6.28;4.90;;;20.80;71.70;;;;;;5006518;28;20171;-81
2021/09/08 13:16:30;;;;;;;6.13;4.90;;;20.80;71.40;;;;;;4992967;28;20281;-81
2021/09/08 13:19:35;;;;;;;;;;;;;;;;;;;;;
2021/09/08 13:22:22;;;;;;;6.20;4.88;;;20.70;71.50;;;;;;4991478;28;20289;-82
2021/09/08 13:24:49;;;;;;;6.53;5.18;;;20.80;71.60;;;;;;5005788;28;20169;-82
2021/09/08 13:27:30;;;;;;;;;;;;;;;;;;;;;
2021/09/08 13:30:15;;;;;;;6.15;4.57;;;20.70;71.80;;;;;;5031975;28;20261;-82
2021/09/08 13:33:10;;;;;;;5.13;4.35;;;20.80;71.70;;;;;;5047225;28;20180;-80
2021/09/08 13:35:41;;;;;;;8.68;4.75;;;20.80;71.50;;;;;;4998561;28;20191;-82
2021/09/08 13:38:27;;;;;;;;;;;;;;;;;;;;;
2021/09/08 13:40:53;;;;;;;6.13;4.68;;;20.90;71.00;;;;;;4964232;28;20298;-84
2021/09/08 13:43:20;;;;;;;5.80;4.55;;;20.90;71.10;;;;;;4967615;28;20617;-83
2021/09/08 13:45:49;;;;;;;5.82;4.60;;;20.90;71.30;;;;;;4981871;28;20160;-83
2021/09/08 13:48:19;;;;;;;6.07;4.60;;;20.80;71.10;;;;;;4987044;28;20176;-82